createdAt,value
2022-09-05T00:00:21.676Z,6.4
2022-09-05T00:01:30.003Z,6.4
2022-09-05T00:02:38.654Z,6.9
2022-09-05T00:03:46.952Z,6.9
2022-09-05T00:04:55.260Z,6.9
2022-09-05T00:06:03.825Z,6.8
2022-09-05T00:07:33.001Z,6.8
2022-09-05T00:08:20.492Z,6.8
2022-09-05T00:09:29.045Z,6.8
2022-09-05T00:10:51.935Z,6.8
2022-09-05T00:11:45.674Z,6.8
2022-09-05T00:13:07.274Z,7.5
2022-09-05T00:14:02.562Z,7.5
2022-09-05T00:15:15.708Z,7.5
2022-09-05T00:16:19.451Z,7.4
2022-09-05T00:17:27.884Z,7.4
2022-09-05T00:19:34.110Z,7.4
2022-09-05T00:24:17.819Z,7.3
2022-09-05T00:24:18.136Z,6.7
2022-09-05T00:24:23.980Z,7.3
2022-09-05T00:24:24.243Z,6.7
2022-09-05T00:24:24.465Z,7.3
2022-09-05T00:25:31.459Z,6.7
2022-09-05T00:26:34.977Z,6.7
2022-09-05T00:27:43.298Z,6.7
2022-09-05T00:28:51.626Z,6.7
2022-09-05T00:30:52.365Z,6.6
2022-09-05T00:31:52.139Z,6.6
2022-09-05T00:32:16.855Z,6.6
2022-09-05T00:33:25.345Z,6.9
2022-09-05T00:34:38.797Z,6.9
2022-09-05T00:35:41.990Z,6.9
2022-09-05T00:36:50.538Z,7.2
2022-09-05T00:37:58.899Z,7.2
2022-09-05T00:39:07.226Z,7.2
2022-09-05T00:40:18.055Z,5.9
2022-09-05T00:41:24.073Z,5.9
2022-09-05T00:42:32.402Z,5.9
2022-09-05T00:43:40.935Z,6.7
2022-09-05T00:44:49.283Z,6.7
2022-09-05T00:45:57.621Z,6.7
2022-09-05T00:47:06.153Z,7.1
2022-09-05T00:48:14.492Z,7.1
2022-09-05T00:49:22.824Z,7.1
2022-09-05T00:50:31.341Z,6.9
2022-09-05T00:51:39.665Z,6.9
2022-09-05T00:52:50.441Z,6.9
2022-09-05T00:53:56.538Z,7.3
2022-09-05T00:55:04.830Z,7.3
2022-09-05T00:56:13.157Z,7.3
2022-09-05T00:57:21.675Z,6.8
2022-09-05T00:58:31.766Z,6.8
2022-09-05T00:59:38.316Z,6.8
2022-09-05T01:00:46.836Z,6.5
2022-09-05T01:01:55.287Z,6.5
2022-09-05T01:03:03.594Z,6.5
2022-09-05T01:04:12.033Z,7.2
2022-09-05T01:05:20.357Z,7.2
2022-09-05T01:06:28.691Z,7.2
2022-09-05T01:07:37.983Z,7
2022-09-05T01:08:45.563Z,7
2022-09-05T01:09:53.872Z,7
2022-09-05T01:11:02.404Z,6.9
2022-09-05T01:12:10.723Z,6.9
2022-09-05T01:13:19.132Z,6.9
2022-09-05T01:14:27.605Z,7.2
2022-09-05T01:15:36.035Z,7.2
2022-09-05T01:16:45.113Z,7.2
2022-09-05T01:17:52.793Z,7.2
2022-09-05T01:19:01.119Z,7.2
2022-09-05T01:20:19.862Z,7.2
2022-09-05T01:21:17.955Z,7
2022-09-05T01:22:26.294Z,7
2022-09-05T01:23:34.627Z,7
2022-09-05T01:24:43.151Z,6.8
2022-09-05T01:25:52.561Z,6.8
2022-09-05T01:26:59.787Z,6.8
2022-09-05T01:29:14.699Z,6.9
2022-09-05T01:29:19.544Z,6.9
2022-09-05T01:30:25.066Z,6.9
2022-09-05T01:31:33.612Z,8
2022-09-05T01:32:41.828Z,8
2022-09-05T01:33:50.156Z,8
2022-09-05T01:34:58.683Z,7.5
2022-09-05T01:36:06.993Z,7.5
2022-09-05T01:37:25.014Z,7.5
2022-09-05T01:38:23.881Z,8.1
2022-09-05T01:40:12.785Z,8.1
2022-09-05T01:40:40.562Z,8.1
2022-09-05T01:41:49.050Z,7.7
2022-09-05T01:42:57.383Z,7.7
2022-09-05T01:44:05.709Z,7.7
2022-09-05T01:45:14.245Z,7.6
2022-09-05T01:46:22.629Z,7.6
2022-09-05T01:47:31.386Z,7.6
2022-09-05T01:48:39.430Z,7.6
2022-09-05T01:49:47.757Z,7.6
2022-09-05T01:50:56.078Z,7.6
2022-09-05T01:52:04.608Z,7.9
2022-09-05T01:53:12.935Z,7.9
2022-09-05T01:54:23.855Z,7.9
2022-09-05T01:55:29.796Z,7.5
2022-09-05T01:56:38.100Z,7.5
2022-09-05T01:57:46.432Z,7.5
2022-09-05T01:58:54.981Z,6.7
2022-09-05T02:00:03.298Z,6.7
2022-09-05T02:01:25.006Z,6.7
2022-09-05T02:02:20.314Z,7.3
2022-09-05T02:03:28.501Z,7.3
2022-09-05T02:04:36.831Z,7.3
2022-09-05T02:05:48.037Z,7.3
2022-09-05T02:06:53.677Z,7.3
2022-09-05T02:08:02.010Z,7.3
2022-09-05T02:09:10.545Z,7.5
2022-09-05T02:10:18.882Z,7.5
2022-09-05T02:11:34.870Z,7.5
2022-09-05T02:12:35.737Z,7.1
2022-09-05T02:13:44.083Z,7.1
2022-09-05T02:14:52.402Z,7.1
2022-09-05T02:16:00.961Z,8.1
2022-09-05T02:17:09.250Z,8.1
2022-09-05T02:18:17.560Z,8.1
2022-09-05T02:19:26.095Z,6.7
2022-09-05T02:20:34.430Z,6.7
2022-09-05T02:21:55.903Z,6.7
2022-09-05T02:22:51.304Z,7.4
2022-09-05T02:23:59.626Z,7.4
2022-09-05T02:25:23.222Z,7.4
2022-09-05T02:26:16.479Z,7.6
2022-09-05T02:27:31.737Z,7.6
2022-09-05T02:28:33.124Z,7.6
2022-09-05T02:29:41.644Z,7.9
2022-09-05T02:30:50.338Z,7.9
2022-09-05T02:31:58.360Z,7.9
2022-09-05T02:33:06.843Z,7.9
2022-09-05T02:34:15.160Z,7.9
2022-09-05T02:35:23.494Z,7.9
2022-09-05T02:36:32.015Z,7.4
2022-09-05T02:38:04.633Z,7.4
2022-09-05T02:40:27.846Z,7.4
2022-09-05T02:41:01.204Z,7.3
2022-09-05T02:45:04.850Z,7.3
2022-09-05T02:45:05.737Z,7.3
2022-09-05T02:45:15.964Z,8.3
2022-09-05T02:45:15.972Z,8.3
2022-09-05T02:45:39.134Z,8.3
2022-09-05T02:46:47.585Z,7.1
2022-09-05T02:47:55.849Z,7.1
2022-09-05T02:49:04.812Z,7.1
2022-09-05T02:50:51.734Z,7.6
2022-09-05T02:53:57.781Z,7.6
2022-09-05T02:57:23.567Z,7.6
2022-09-05T02:57:31.199Z,7.1
2022-09-05T02:57:31.401Z,7.7
2022-09-05T02:57:31.437Z,7.1
2022-09-05T02:57:32.467Z,7.1
2022-09-05T02:58:11.659Z,7.7
2022-09-05T02:59:19.702Z,7.7
2022-09-05T03:00:28.228Z,7.2
2022-09-05T03:01:36.709Z,7.2
2022-09-05T03:02:44.917Z,7.2
2022-09-05T03:03:53.431Z,7.3
2022-09-05T03:05:04.464Z,7.3
2022-09-05T03:06:10.069Z,7.3
2022-09-05T03:07:18.600Z,8.1
2022-09-05T03:08:26.938Z,8.1
2022-09-05T03:09:35.252Z,8.1
2022-09-05T03:10:54.007Z,7.7
2022-09-05T03:11:52.105Z,7.7
2022-09-05T03:13:00.448Z,7.7
2022-09-05T03:14:08.989Z,8
2022-09-05T03:15:18.944Z,8
2022-09-05T03:16:25.663Z,8
2022-09-05T03:17:34.148Z,7.8
2022-09-05T03:18:42.476Z,7.8
2022-09-05T03:19:50.798Z,7.8
2022-09-05T03:21:09.377Z,7.9
2022-09-05T03:22:07.647Z,7.9
2022-09-05T03:23:15.973Z,7.9
2022-09-05T03:24:24.502Z,8.6
2022-09-05T03:25:32.829Z,8.6
2022-09-05T03:26:41.161Z,8.6
2022-09-05T03:27:49.698Z,8.8
2022-09-05T03:28:58.030Z,8.8
2022-09-05T03:30:06.354Z,8.8
2022-09-05T03:31:20.551Z,8.8
2022-09-05T03:32:23.212Z,8.8
2022-09-05T03:33:31.531Z,8.8
2022-09-05T03:34:40.092Z,9
2022-09-05T03:35:48.413Z,9
2022-09-05T03:36:56.991Z,9
2022-09-05T03:38:06.075Z,8.6
2022-09-05T03:39:14.393Z,8.6
2022-09-05T03:40:22.728Z,8.6
2022-09-05T03:41:33.877Z,8.9
2022-09-05T03:42:39.604Z,8.9
2022-09-05T03:43:47.919Z,8.9
2022-09-05T03:44:56.474Z,9
2022-09-05T03:46:04.851Z,9
2022-09-05T03:47:13.129Z,9
2022-09-05T03:48:28.199Z,8.5
2022-09-05T03:50:25.891Z,8.5
2022-09-05T03:52:11.765Z,8.5
2022-09-05T03:54:39.701Z,9.1
2022-09-05T03:56:31.004Z,9.1
2022-09-05T03:57:09.538Z,8.9
2022-09-05T03:57:21.599Z,9.1
2022-09-05T03:57:21.840Z,8.9
2022-09-05T03:57:36.879Z,8.9
2022-09-05T03:58:55.718Z,8.6
2022-09-05T03:59:45.612Z,8.6
2022-09-05T04:00:53.965Z,8.6
2022-09-05T04:02:59.930Z,8.3
2022-09-05T04:05:59.617Z,8.3
2022-09-05T04:08:11.754Z,8.3
2022-09-05T04:08:12.045Z,8.6
2022-09-05T04:08:12.236Z,8.6
2022-09-05T04:08:20.061Z,8.6
2022-09-05T04:08:53.979Z,7.4
2022-09-05T04:10:01.685Z,7.4
2022-09-05T04:11:09.994Z,7.4
2022-09-05T04:12:18.487Z,8.7
2022-09-05T04:13:26.811Z,8.7
2022-09-05T04:14:35.133Z,8.7
2022-09-05T04:15:43.658Z,8.6
2022-09-05T04:16:52.025Z,8.6
2022-09-05T04:18:03.604Z,8.6
2022-09-05T04:19:08.845Z,9
2022-09-05T04:20:17.160Z,9
2022-09-05T04:21:25.477Z,9
2022-09-05T04:22:33.999Z,9.1
2022-09-05T04:23:42.320Z,9.1
2022-09-05T04:24:50.638Z,9.1
2022-09-05T04:26:05.149Z,9
2022-09-05T04:27:07.479Z,9
2022-09-05T04:28:15.799Z,9
2022-09-05T04:29:24.326Z,8.5
2022-09-05T04:30:38.106Z,8.5
2022-09-05T04:31:41.029Z,8.5
2022-09-05T04:32:52.992Z,8.6
2022-09-05T04:33:57.843Z,8.6
2022-09-05T04:35:06.192Z,8.6
2022-09-05T04:36:17.704Z,8.4
2022-09-05T04:37:23.046Z,8.4
2022-09-05T04:38:31.371Z,8.4
2022-09-05T04:39:39.942Z,9.8
2022-09-05T04:40:48.245Z,9.8
2022-09-05T04:41:56.572Z,9.8
2022-09-05T04:43:05.094Z,9
2022-09-05T04:44:13.417Z,9
2022-09-05T04:45:24.213Z,9
2022-09-05T04:46:30.292Z,7.5
2022-09-05T04:47:38.620Z,7.5
2022-09-05T04:48:46.940Z,7.5
2022-09-05T04:49:55.494Z,51.599998
2022-09-05T04:51:03.825Z,51.599998
2022-09-05T04:52:13.269Z,51.599998
2022-09-05T04:53:20.672Z,10
2022-09-05T04:54:30.166Z,10
2022-09-05T04:55:37.332Z,10
2022-09-05T04:56:45.861Z,8.1
2022-09-05T04:57:54.216Z,8.1
2022-09-05T05:00:04.185Z,8.1
2022-09-05T05:01:18.722Z,8
2022-09-05T05:02:56.296Z,8
2022-09-05T05:05:58.989Z,8
2022-09-05T05:06:06.669Z,8.6
2022-09-05T05:06:06.686Z,8.6
2022-09-05T05:06:07.937Z,8.6
2022-09-05T05:07:05.983Z,7.7
2022-09-05T05:08:09.901Z,7.7
2022-09-05T05:09:18.084Z,7.7
2022-09-05T05:10:49.015Z,7.6
2022-09-05T05:15:00.118Z,7.6
2022-09-05T05:15:57.936Z,7.6
2022-09-05T05:16:59.389Z,8.8
2022-09-05T05:17:54.734Z,7.1
2022-09-05T05:18:04.807Z,8.8
2022-09-05T05:18:05.000Z,8.8
2022-09-05T05:18:39.059Z,7.1
2022-09-05T05:19:33.701Z,7.1
2022-09-05T05:20:43.876Z,7.5
2022-09-05T05:21:50.472Z,7.5
2022-09-05T05:22:58.790Z,7.5
2022-09-05T05:24:07.333Z,8.2
2022-09-05T05:25:15.657Z,8.2
2022-09-05T05:26:23.981Z,8.2
2022-09-05T05:27:32.509Z,8.4
2022-09-05T05:28:40.837Z,8.4
2022-09-05T05:29:49.160Z,8.4
2022-09-05T05:31:01.321Z,8.3
2022-09-05T05:32:06.060Z,8.3
2022-09-05T05:33:14.362Z,8.3
2022-09-05T05:34:24.237Z,8.6
2022-09-05T05:35:31.227Z,8.6
2022-09-05T05:36:39.541Z,8.6
2022-09-05T05:37:48.075Z,8.8
2022-09-05T05:38:56.398Z,8.8
2022-09-05T05:40:04.763Z,8.8
2022-09-05T05:41:13.288Z,9.1
2022-09-05T05:42:21.727Z,9.1
2022-09-05T05:43:29.933Z,9.1
2022-09-05T05:44:38.476Z,14.2
2022-09-05T05:45:46.945Z,14.2
2022-09-05T05:46:55.145Z,14.2
2022-09-05T05:48:03.668Z,9.7
2022-09-05T05:49:11.990Z,9.7
2022-09-05T05:50:20.337Z,9.7
2022-09-05T05:51:34.460Z,11.5
2022-09-05T05:52:37.190Z,11.5
2022-09-05T05:53:49.053Z,11.5
2022-09-05T05:55:27.088Z,10.6
2022-09-05T05:56:02.370Z,10.6
2022-09-05T05:57:14.939Z,10.6
2022-09-05T05:58:19.228Z,10.2
2022-09-05T05:59:27.545Z,10.2
2022-09-05T06:00:35.895Z,10.2
2022-09-05T06:01:44.550Z,10.4
2022-09-05T06:03:09.820Z,10.4
2022-09-05T06:04:01.063Z,10.4
2022-09-05T06:05:09.619Z,10.6
2022-09-05T06:06:17.967Z,10.6
2022-09-05T06:07:26.289Z,10.6
2022-09-05T06:09:33.786Z,11.5
2022-09-05T06:11:57.038Z,11.5
2022-09-05T06:13:28.942Z,11.5
2022-09-05T06:14:53.839Z,13.7
2022-09-05T06:14:53.939Z,13.7
2022-09-05T06:15:03.240Z,13.7
2022-09-05T06:15:25.738Z,10.7
2022-09-05T06:16:33.547Z,10.7
2022-09-05T06:17:41.829Z,10.7
2022-09-05T06:18:50.366Z,10.2
2022-09-05T06:20:42.916Z,10.2
2022-09-05T06:22:08.225Z,10.2
2022-09-05T06:22:18.092Z,11.1
2022-09-05T06:23:39.703Z,11.1
2022-09-05T06:24:32.207Z,11.1
2022-09-05T06:25:40.747Z,10.8
2022-09-05T06:26:49.065Z,10.8
2022-09-05T06:28:01.538Z,10.8
2022-09-05T06:29:05.924Z,10.9
2022-09-05T06:30:14.292Z,10.9
2022-09-05T06:31:29.641Z,10.9
2022-09-05T06:32:31.120Z,11.3
2022-09-05T06:33:39.486Z,11.3
2022-09-05T06:34:47.802Z,11.3
2022-09-05T06:35:59.128Z,12.4
2022-09-05T06:37:04.667Z,12.4
2022-09-05T06:38:12.983Z,12.4
2022-09-05T06:39:21.564Z,10.1
2022-09-05T06:40:32.119Z,10.1
2022-09-05T06:41:38.168Z,10.1
2022-09-05T06:42:46.689Z,9.8
2022-09-05T06:43:55.000Z,9.8
2022-09-05T06:45:10.678Z,9.8
2022-09-05T06:46:11.896Z,10.2
2022-09-05T06:47:24.050Z,10.2
2022-09-05T06:48:36.591Z,10.2
2022-09-05T06:49:38.793Z,12.5
2022-09-05T06:51:07.679Z,12.5
2022-09-05T06:52:02.654Z,12.5
2022-09-05T06:53:05.441Z,9.8
2022-09-05T06:54:10.504Z,9.8
2022-09-05T06:55:18.860Z,9.8
2022-09-05T06:56:27.404Z,11.6
2022-09-05T06:57:35.732Z,11.6
2022-09-05T06:58:44.058Z,11.6
2022-09-05T06:59:52.582Z,10.9
2022-09-05T07:01:00.971Z,10.9
2022-09-05T07:02:09.425Z,10.9
2022-09-05T07:03:17.814Z,9.6
2022-09-05T07:04:31.989Z,9.6
2022-09-05T07:05:38.367Z,9.6
2022-09-05T07:07:01.388Z,10.2
2022-09-05T07:07:51.322Z,10.2
2022-09-05T07:08:59.633Z,10.2
2022-09-05T07:10:22.346Z,11.2
2022-09-05T07:11:17.221Z,11.2
2022-09-05T07:12:24.810Z,11.2
2022-09-05T07:13:33.332Z,10.7
2022-09-05T07:14:41.657Z,10.7
2022-09-05T07:15:50.046Z,10.7
2022-09-05T07:16:58.527Z,10
2022-09-05T07:18:10.387Z,10
2022-09-05T07:19:15.165Z,10
2022-09-05T07:20:23.748Z,10.6
2022-09-05T07:21:32.006Z,10.6
2022-09-05T07:22:48.236Z,10.6
2022-09-05T07:24:05.841Z,11.2
2022-09-05T07:24:57.198Z,11.2
2022-09-05T07:26:05.535Z,11.2
2022-09-05T07:27:14.061Z,11.7
2022-09-05T07:28:27.243Z,11.7
2022-09-05T07:29:30.686Z,11.7
2022-09-05T07:30:39.228Z,10.8
2022-09-05T07:31:47.616Z,10.8
2022-09-05T07:32:55.892Z,10.8
2022-09-05T07:34:04.425Z,10.5
2022-09-05T07:35:12.750Z,10.5
2022-09-05T07:36:21.070Z,10.5
2022-09-05T07:37:29.605Z,11.2
2022-09-05T07:38:41.884Z,11.2
2022-09-05T07:39:46.290Z,11.2
2022-09-05T07:40:54.805Z,10.7
2022-09-05T07:42:03.176Z,10.7
2022-09-05T07:43:11.502Z,10.7
2022-09-05T07:44:20.925Z,9.7
2022-09-05T07:45:28.430Z,9.7
2022-09-05T07:46:36.689Z,9.7
2022-09-05T07:47:45.231Z,9.3
2022-09-05T07:48:53.563Z,9.3
2022-09-05T07:50:27.933Z,9.3
2022-09-05T07:53:16.721Z,9.6
2022-09-05T07:55:13.823Z,9.6
2022-09-05T07:56:48.728Z,8.9
2022-09-05T07:56:57.418Z,8.9
2022-09-05T07:56:58.083Z,9.6
2022-09-05T07:57:25.235Z,8.9
2022-09-05T07:58:00.771Z,8.4
2022-09-05T07:59:09.082Z,8.4
2022-09-05T08:00:23.069Z,8.4
2022-09-05T08:01:26.048Z,8.1
2022-09-05T08:02:34.321Z,8.1
2022-09-05T08:03:42.632Z,8.1
2022-09-05T08:04:51.274Z,9
2022-09-05T08:05:59.497Z,9
2022-09-05T08:07:34.806Z,9
2022-09-05T08:08:16.352Z,7.8
2022-09-05T08:09:59.617Z,7.8
2022-09-05T08:10:35.855Z,7.8
2022-09-05T08:11:41.537Z,8.1
2022-09-05T08:12:51.973Z,8.1
2022-09-05T08:14:18.178Z,8.1
2022-09-05T08:15:06.702Z,8
2022-09-05T08:16:15.402Z,8
2022-09-05T08:17:26.425Z,8
2022-09-05T08:18:31.878Z,7.6
2022-09-05T08:19:40.203Z,7.6
2022-09-05T08:20:48.531Z,7.6
2022-09-05T08:21:57.136Z,6.9
2022-09-05T08:23:05.493Z,6.9
2022-09-05T08:24:14.416Z,6.9
2022-09-05T08:25:22.348Z,7.8
2022-09-05T08:26:30.682Z,7.8
2022-09-05T08:27:38.995Z,7.8
2022-09-05T08:28:47.529Z,6.6
2022-09-05T08:29:59.014Z,6.6
2022-09-05T08:31:04.213Z,6.6
2022-09-05T08:32:12.717Z,6.5
2022-09-05T08:33:21.043Z,6.5
2022-09-05T08:34:32.669Z,6.5
2022-09-05T08:35:37.900Z,6.5
2022-09-05T08:36:46.216Z,6.5
2022-09-05T08:37:54.566Z,6.5
2022-09-05T08:39:03.105Z,5
2022-09-05T08:40:12.176Z,5
2022-09-05T08:41:19.759Z,5
2022-09-05T08:42:28.290Z,5.9
2022-09-05T08:44:09.902Z,5.9
2022-09-05T08:46:38.537Z,5.9
2022-09-05T08:46:39.010Z,4.2
2022-09-05T08:47:02.210Z,4.2
2022-09-05T08:48:10.171Z,4.2
2022-09-05T08:49:24.437Z,4.6
2022-09-05T08:50:27.254Z,4.6
2022-09-05T08:51:35.396Z,4.6
2022-09-05T08:52:43.950Z,4.7
2022-09-05T08:53:52.538Z,4.7
2022-09-05T08:55:06.406Z,4.7
2022-09-05T08:56:09.113Z,3.5
2022-09-05T08:57:17.431Z,3.5
2022-09-05T08:58:25.756Z,3.5
2022-09-05T08:59:34.286Z,4.3
2022-09-05T09:00:42.647Z,4.3
2022-09-05T09:01:52.979Z,4.3
2022-09-05T09:03:04.177Z,3.7
2022-09-05T09:04:10.735Z,3.7
2022-09-05T09:05:16.128Z,3.7
2022-09-05T09:06:26.812Z,3.8
2022-09-05T09:07:48.307Z,3.8
2022-09-05T09:08:41.317Z,3.8
2022-09-05T09:09:49.839Z,3.2
2022-09-05T09:10:58.166Z,3.2
2022-09-05T09:12:06.493Z,3.2
2022-09-05T09:13:15.046Z,4
2022-09-05T09:14:30.705Z,4
2022-09-05T09:15:31.714Z,4
2022-09-05T09:16:40.260Z,3.5
2022-09-05T09:17:48.584Z,3.5
2022-09-05T09:18:56.929Z,3.5
2022-09-05T09:20:05.463Z,2.4
2022-09-05T09:21:13.781Z,2.4
2022-09-05T09:22:22.109Z,2.4
2022-09-05T09:23:31.875Z,4.5
2022-09-05T09:24:38.993Z,4.5
2022-09-05T09:25:47.336Z,4.5
2022-09-05T09:26:55.888Z,4.2
2022-09-05T09:28:45.014Z,4.2
2022-09-05T09:29:12.556Z,4.2
2022-09-05T09:30:21.111Z,3.4
2022-09-05T09:31:29.532Z,3.4
2022-09-05T09:32:37.802Z,3.4
2022-09-05T09:33:46.328Z,3.8
2022-09-05T09:34:55.556Z,3.8
2022-09-05T09:36:06.278Z,3.8
2022-09-05T09:37:11.560Z,3.3
2022-09-05T09:38:19.969Z,3.3
2022-09-05T09:39:34.396Z,3.3
2022-09-05T09:40:36.750Z,3.8
2022-09-05T09:41:45.093Z,3.8
2022-09-05T09:42:53.426Z,3.8
2022-09-05T09:44:01.992Z,4.6
2022-09-05T09:45:22.639Z,4.6
2022-09-05T09:46:18.683Z,4.6
2022-09-05T09:47:27.224Z,4.7
2022-09-05T09:48:35.557Z,4.7
2022-09-05T09:49:43.884Z,4.7
2022-09-05T09:50:58.855Z,3.6
2022-09-05T09:52:00.756Z,3.6
2022-09-05T09:53:09.092Z,3.6
2022-09-05T09:54:17.653Z,4.1
2022-09-05T09:55:28.467Z,4.1
2022-09-05T09:56:34.313Z,4.1
2022-09-05T09:57:42.863Z,4.3
2022-09-05T09:58:51.216Z,4.3
2022-09-05T09:59:59.550Z,4.3
2022-09-05T10:01:34.933Z,4.4
2022-09-05T10:02:45.366Z,4.4
2022-09-05T10:05:44.244Z,4.4
2022-09-05T10:08:38.015Z,3.9
2022-09-05T10:10:36.766Z,3.9
2022-09-05T10:10:40.847Z,2.9
2022-09-05T10:10:40.970Z,2.9
2022-09-05T10:10:41.158Z,2.9
2022-09-05T10:10:41.394Z,3.9
2022-09-05T10:11:48.517Z,4.3
2022-09-05T10:12:32.045Z,4.3
2022-09-05T10:13:40.365Z,4.3
2022-09-05T10:14:50.189Z,3.8
2022-09-05T10:15:57.290Z,3.8
2022-09-05T10:17:05.561Z,3.8
2022-09-05T10:18:14.087Z,3.7
2022-09-05T10:20:07.229Z,3.7
2022-09-05T10:20:30.783Z,3.7
2022-09-05T10:21:39.312Z,4.4
2022-09-05T10:22:47.654Z,4.4
2022-09-05T10:23:55.990Z,4.4
2022-09-05T10:25:12.257Z,3.9
2022-09-05T10:26:12.881Z,3.9
2022-09-05T10:27:21.217Z,3.9
2022-09-05T10:28:30.179Z,4.5
2022-09-05T10:29:38.722Z,4.5
2022-09-05T10:32:13.652Z,4.5
2022-09-05T10:33:01.090Z,3.7
2022-09-05T10:35:05.324Z,3.7
2022-09-05T10:35:12.437Z,3.7
2022-09-05T10:35:23.475Z,10.4
2022-09-05T10:36:28.619Z,10.4
2022-09-05T10:37:36.912Z,10.4
2022-09-05T10:38:45.475Z,3.9
2022-09-05T10:39:53.868Z,3.9
2022-09-05T10:41:20.553Z,3.9
2022-09-05T10:42:10.724Z,3.4
2022-09-05T10:43:19.066Z,3.4
2022-09-05T10:44:27.404Z,3.4
2022-09-05T10:45:38.382Z,4.5
2022-09-05T10:46:51.023Z,4.5
2022-09-05T10:47:52.663Z,4.5
2022-09-05T10:49:01.195Z,5.3
2022-09-05T10:50:09.653Z,5.3
2022-09-05T10:51:27.658Z,5.3
2022-09-05T10:52:26.538Z,3.8
2022-09-05T10:53:39.167Z,3.8
2022-09-05T10:54:43.210Z,3.8
2022-09-05T10:55:52.319Z,4.7
2022-09-05T10:57:00.101Z,4.7
2022-09-05T10:58:08.449Z,4.7
2022-09-05T11:00:38.438Z,3.4
2022-09-05T11:02:16.001Z,3.4
2022-09-05T11:02:25.825Z,3.4
2022-09-05T11:02:45.720Z,3.4
2022-09-05T11:03:50.689Z,3.4
2022-09-05T11:04:58.996Z,3.4
2022-09-05T11:06:09.284Z,3.7
2022-09-05T11:07:15.842Z,3.7
2022-09-05T11:08:24.212Z,3.7
2022-09-05T11:09:32.774Z,4.3
2022-09-05T11:10:41.105Z,4.3
2022-09-05T11:11:49.450Z,4.3
2022-09-05T11:12:58.048Z,3.8
2022-09-05T11:14:06.367Z,3.8
2022-09-05T11:15:14.706Z,3.8
2022-09-05T11:16:23.308Z,3.8
2022-09-05T11:17:31.611Z,3.8
2022-09-05T11:18:55.840Z,3.8
2022-09-05T11:19:48.521Z,5.1
2022-09-05T11:20:56.895Z,5.1
2022-09-05T11:22:19.913Z,5.1
2022-09-05T11:23:13.799Z,4
2022-09-05T11:24:26.723Z,4
2022-09-05T11:25:37.010Z,4
2022-09-05T11:26:39.029Z,4.6
2022-09-05T11:27:47.370Z,4.6
2022-09-05T11:28:57.669Z,4.6
2022-09-05T11:30:04.250Z,3.5
2022-09-05T11:31:12.691Z,3.5
2022-09-05T11:34:12.856Z,3.5
2022-09-05T11:34:50.132Z,5.5
2022-09-05T11:37:40.071Z,5.5
2022-09-05T11:38:47.730Z,3.2
2022-09-05T11:39:49.390Z,5.5
2022-09-05T11:39:49.465Z,3.2
2022-09-05T11:40:01.602Z,3.2
2022-09-05T11:40:27.257Z,3.8
2022-09-05T11:41:29.342Z,3.8
2022-09-05T11:42:37.237Z,3.8
2022-09-05T11:43:45.796Z,3.8
2022-09-05T11:44:54.135Z,3.8
2022-09-05T11:46:02.548Z,3.8
2022-09-05T11:47:14.087Z,4.8
2022-09-05T11:48:20.000Z,4.8
2022-09-05T11:49:27.744Z,4.8
2022-09-05T11:50:39.008Z,3.3
2022-09-05T11:52:32.651Z,3.3
2022-09-05T11:53:48.286Z,3.3
2022-09-05T11:56:31.928Z,4.9
2022-09-05T11:57:47.845Z,4.9
2022-09-05T11:58:57.487Z,5.6
2022-09-05T12:00:10.819Z,5.6
2022-09-05T12:01:35.015Z,5.6
2022-09-05T12:02:25.588Z,4
2022-09-05T12:03:57.958Z,4
2022-09-05T12:05:26.241Z,4
2022-09-05T12:05:58.759Z,3.9
2022-09-05T12:07:15.695Z,3.9
2022-09-05T12:08:19.163Z,3.9
2022-09-05T12:09:29.499Z,3.4
2022-09-05T12:10:43.791Z,3.4
2022-09-05T12:11:48.875Z,3.4
2022-09-05T12:12:59.128Z,3.1
2022-09-05T12:14:13.867Z,3.1
2022-09-05T12:15:15.979Z,3.1
2022-09-05T12:16:26.456Z,3.3
2022-09-05T12:17:35.185Z,3.3
2022-09-05T12:18:43.116Z,3.3
2022-09-05T12:19:51.656Z,3.2
2022-09-05T12:21:00.013Z,3.2
2022-09-05T12:22:08.714Z,3.2
2022-09-05T12:23:19.707Z,4
2022-09-05T12:25:15.891Z,4
2022-09-05T12:26:10.445Z,4
2022-09-05T12:27:43.402Z,2.9
2022-09-05T12:29:28.441Z,2.9
2022-09-05T12:30:07.503Z,3.2
2022-09-05T12:32:02.320Z,3.2
2022-09-05T12:32:50.418Z,3.2
2022-09-05T12:35:48.750Z,3.3
2022-09-05T12:36:03.382Z,3.3
2022-09-05T12:36:09.162Z,3.3
2022-09-05T12:39:38.112Z,4.5
2022-09-05T12:40:43.484Z,4.5
2022-09-05T12:40:57.307Z,2.9
2022-09-05T12:41:40.013Z,2.9
2022-09-05T12:41:48.177Z,2.9
2022-09-05T12:41:48.280Z,4.5
2022-09-05T12:42:54.904Z,2.9
2022-09-05T12:44:37.699Z,3.2
2022-09-05T12:44:57.208Z,3.2
2022-09-05T12:46:05.711Z,3.2
2022-09-05T12:47:17.267Z,3.4
2022-09-05T12:48:22.020Z,3.4
2022-09-05T12:49:35.186Z,3.4
2022-09-05T12:50:38.925Z,2.6
2022-09-05T12:51:47.753Z,2.6
2022-09-05T12:52:55.598Z,2.6
2022-09-05T12:54:04.135Z,2.8
2022-09-05T12:55:12.802Z,2.8
2022-09-05T12:56:52.929Z,2.8
2022-09-05T12:58:37.323Z,2.8
2022-09-05T12:59:56.736Z,2.8
2022-09-05T13:02:59.599Z,2.8
2022-09-05T13:02:59.783Z,2.6
2022-09-05T13:03:10.526Z,2.6
2022-09-05T13:03:27.322Z,2.6
2022-09-05T13:04:23.886Z,3.3
2022-09-05T13:05:28.560Z,3.3
2022-09-05T13:06:36.934Z,3.3
2022-09-05T13:07:45.357Z,2.5
2022-09-05T13:08:59.312Z,2.5
2022-09-05T13:10:36.569Z,2.5
2022-09-05T13:12:32.654Z,3.5
2022-09-05T13:14:16.881Z,3.5
2022-09-05T13:14:51.761Z,2.5
2022-09-05T13:14:51.831Z,3.5
2022-09-05T13:15:44.243Z,2.5
2022-09-05T13:16:52.537Z,2.5
2022-09-05T13:18:01.082Z,4.3
2022-09-05T13:19:09.403Z,4.3
2022-09-05T13:20:17.741Z,4.3
2022-09-05T13:21:26.300Z,2.7
2022-09-05T13:22:34.608Z,2.7
2022-09-05T13:23:43.656Z,2.7
2022-09-05T13:24:51.484Z,2.6
2022-09-05T13:25:59.856Z,2.6
2022-09-05T13:27:08.220Z,2.6
2022-09-05T13:28:16.763Z,2.9
2022-09-05T13:29:25.091Z,2.9
2022-09-05T13:31:40.719Z,2.9
2022-09-05T13:36:17.297Z,4
2022-09-05T13:37:23.724Z,4
2022-09-05T13:37:56.812Z,4
2022-09-05T13:37:57.183Z,2.8
2022-09-05T13:38:08.832Z,2.8
2022-09-05T13:38:09.351Z,2.8
2022-09-05T13:38:49.084Z,2.5
2022-09-05T13:39:40.906Z,2.5
2022-09-05T13:40:49.297Z,2.5
2022-09-05T13:41:57.685Z,2.6
2022-09-05T13:43:06.025Z,2.6
2022-09-05T13:44:25.859Z,2.6
2022-09-05T13:45:22.937Z,2.5
2022-09-05T13:46:31.339Z,2.5
2022-09-05T13:47:39.610Z,2.5
2022-09-05T13:49:56.526Z,2.3
2022-09-05T13:51:04.855Z,2.3
2022-09-05T13:52:13.413Z,2.8
2022-09-05T13:53:21.742Z,2.8
2022-09-05T13:54:30.073Z,2.8
2022-09-05T13:55:38.598Z,2.7
2022-09-05T13:56:46.955Z,2.7
2022-09-05T13:57:55.292Z,2.7
2022-09-05T13:59:03.856Z,2.5
2022-09-05T14:00:15.378Z,2.5
2022-09-05T14:01:20.581Z,2.5
2022-09-05T14:02:29.140Z,2.6
2022-09-05T14:03:39.884Z,2.6
2022-09-05T14:05:54.265Z,2.2
2022-09-05T14:08:10.981Z,2.2
2022-09-05T14:09:36.538Z,2.3
2022-09-05T14:10:27.853Z,2.3
2022-09-05T14:11:36.197Z,2.3
2022-09-05T14:12:44.759Z,3
2022-09-05T14:13:53.101Z,3
2022-09-05T14:15:09.926Z,3
2022-09-05T14:16:09.979Z,2.7
2022-09-05T14:18:26.731Z,2.7
2022-09-05T14:19:35.222Z,3
2022-09-05T14:20:43.565Z,3
2022-09-05T14:21:51.911Z,3
2022-09-05T14:23:00.457Z,2.3
2022-09-05T14:24:09.681Z,2.3
2022-09-05T14:25:17.132Z,2.3
2022-09-05T14:26:25.715Z,2.5
2022-09-05T14:27:34.057Z,2.5
2022-09-05T14:28:46.435Z,2.5
2022-09-05T14:29:52.200Z,2.6
2022-09-05T15:04:49.307Z,0
2022-09-05T15:05:57.669Z,0
2022-09-05T15:07:06.226Z,2.2
2022-09-05T15:08:16.339Z,2.2
2022-09-05T15:11:23.774Z,2.2
2022-09-05T15:12:19.267Z,1.9
2022-09-05T15:12:19.320Z,1.9
2022-09-05T15:12:51.939Z,1.9
2022-09-05T15:13:56.790Z,2.6
2022-09-05T15:15:05.145Z,2.6
2022-09-05T15:16:13.490Z,2.6
2022-09-05T15:17:22.048Z,3.5
2022-09-05T15:18:30.375Z,3.5
2022-09-05T15:19:38.717Z,3.5
2022-09-05T15:20:47.283Z,2.1
2022-09-05T15:21:55.631Z,2.1
2022-09-05T15:23:11.414Z,2.1
2022-09-05T15:24:13.533Z,2.2
2022-09-05T15:25:21.336Z,2.2
2022-09-05T15:26:29.236Z,2.2
2022-09-05T15:27:37.779Z,2.5
2022-09-05T15:28:46.121Z,2.5
2022-09-05T15:29:54.465Z,2.5
2022-09-05T15:31:03.041Z,2.7
2022-09-05T15:32:11.347Z,2.7
2022-09-05T15:33:21.808Z,2.7
2022-09-05T15:34:28.228Z,2.6
2022-09-05T15:35:36.605Z,2.6
2022-09-05T15:36:44.932Z,2.6
2022-09-05T15:37:53.488Z,2.7
2022-09-05T15:39:07.335Z,2.7
2022-09-05T15:40:22.324Z,2.7
2022-09-05T15:41:18.741Z,2.1
2022-09-05T15:42:27.075Z,2.1
2022-09-05T15:43:35.420Z,2.1
2022-09-05T15:44:59.562Z,4.1
2022-09-05T15:45:52.382Z,4.1
2022-09-05T15:47:00.691Z,4.1
2022-09-05T15:48:09.240Z,3.6
2022-09-05T15:49:17.568Z,3.6
2022-09-05T15:50:25.930Z,3.6
2022-09-05T15:51:34.510Z,4.4
2022-09-05T15:52:42.844Z,4.4
2022-09-05T15:53:51.195Z,4.4
2022-09-05T15:54:59.739Z,2.6
2022-09-05T15:56:08.096Z,2.6
2022-09-05T15:57:17.896Z,2.6
2022-09-05T15:58:25.167Z,4.3
2022-09-05T15:59:33.326Z,4.3
2022-09-05T16:00:41.705Z,4.3
2022-09-05T16:01:58.837Z,2.8
2022-09-05T16:03:01.013Z,2.8
2022-09-05T16:05:56.125Z,2.8
2022-09-05T16:07:59.927Z,3
2022-09-05T16:09:45.212Z,3
2022-09-05T16:10:32.560Z,3.7
2022-09-05T16:10:32.573Z,3.7
2022-09-05T16:10:33.225Z,3
2022-09-05T16:11:15.361Z,3.7
2022-09-05T16:12:16.152Z,3.1
2022-09-05T16:13:15.059Z,3.1
2022-09-05T16:14:23.389Z,3.1
2022-09-05T16:16:05.939Z,3.3
2022-09-05T16:20:13.012Z,3.3
2022-09-05T16:21:14.384Z,3.3
2022-09-05T16:23:21.381Z,3.8
2022-09-05T16:23:21.888Z,3.8
2022-09-05T16:23:22.291Z,6.1
2022-09-05T16:23:23.276Z,3.8
2022-09-05T16:23:46.059Z,6.1